Time;durP1;ratioP1;P1;durP2;ratioP2;P2;SDS_P1;SDS_P2;PMS_P1;PMS_P2;Temp;Humidity;BMP_temperature;BMP_pressure;BME280_temperature;BME280_humidity;BME280_pressure;Samples;Min_cycle;Max_cycle;Signal;HPM_P1;HPM_P2
2023/07/26 00:00:05;;;;;;;3.37;2.00;;;12.00;99.90;;;;;;5017340;28;20295;-81
2023/07/26 00:02:32;;;;;;;3.63;1.90;;;11.80;99.90;;;;;;5017000;28;20213;-81
2023/07/26 00:04:59;;;;;;;4.37;1.70;;;11.90;99.90;;;;;;5016226;28;20303;-83
2023/07/26 00:07:26;;;;;;;3.13;1.53;;;11.80;99.90;;;;;;5015632;28;20642;-81
2023/07/26 00:09:53;;;;;;;4.67;2.93;;;11.80;99.90;;;;;;5016814;28;20300;-82
2023/07/26 00:12:19;;;;;;;5.83;1.70;;;11.80;99.90;;;;;;5016585;28;20211;-82
2023/07/26 00:14:48;;;;;;;2.03;1.70;;;11.80;99.90;;;;;;5016187;28;20294;-83
2023/07/26 00:17:14;;;;;;;5.43;1.77;;;11.90;99.90;;;;;;5015682;28;20224;-81
2023/07/26 00:19:41;;;;;;;2.60;2.10;;;11.80;99.90;;;;;;5016232;28;20292;-81
2023/07/26 00:22:08;;;;;;;6.67;2.00;;;11.90;99.90;;;;;;5016363;28;20295;-82
2023/07/26 00:24:35;;;;;;;5.57;2.03;;;11.80;99.90;;;;;;5015979;28;20544;-82
2023/07/26 00:27:01;;;;;;;4.03;2.00;;;11.80;99.90;;;;;;5010135;28;20236;-81
2023/07/26 00:29:28;;;;;;;3.13;1.87;;;11.90;99.90;;;;;;5016458;28;20196;-82
2023/07/26 00:31:56;;;;;;;4.30;2.07;;;11.70;99.90;;;;;;5011806;28;20206;-81
2023/07/26 00:34:23;;;;;;;2.00;1.80;;;11.70;99.90;;;;;;5009820;28;20295;-81
2023/07/26 00:36:50;;;;;;;3.53;2.30;;;11.70;99.90;;;;;;5003666;28;20461;-81
2023/07/26 00:39:18;;;;;;;4.33;2.17;;;11.80;99.90;;;;;;5003886;28;20220;-81
2023/07/26 00:41:45;;;;;;;2.47;1.80;;;11.80;99.90;;;;;;5011938;28;20250;-82
2023/07/26 00:44:11;;;;;;;2.97;1.83;;;11.70;99.90;;;;;;5014570;28;20200;-81
2023/07/26 00:46:38;;;;;;;3.43;1.77;;;11.80;99.90;;;;;;4996973;28;20775;-81
2023/07/26 00:49:06;;;;;;;2.93;2.20;;;11.80;99.90;;;;;;5014003;28;20201;-81
2023/07/26 00:51:35;;;;;;;7.70;2.20;;;11.70;99.90;;;;;;5017631;28;20575;-81
2023/07/26 00:54:03;;;;;;;3.40;1.67;;;11.60;99.90;;;;;;5016163;28;20212;-81
2023/07/26 00:56:30;;;;;;;2.80;1.77;;;11.80;99.90;;;;;;5015648;28;20239;-81
2023/07/26 00:58:57;;;;;;;6.07;2.10;;;11.70;99.90;;;;;;5015306;28;20224;-82
2023/07/26 01:01:24;;;;;;;4.27;2.10;;;11.80;99.90;;;;;;5015412;28;20200;-81
2023/07/26 01:03:51;;;;;;;4.43;2.00;;;11.70;99.90;;;;;;5015663;28;20196;-82
2023/07/26 01:06:26;;;;;;;3.90;2.00;;;11.60;99.90;;;;;;5015031;28;20223;-82
2023/07/26 01:09:02;;;;;;;6.63;2.17;;;11.40;99.90;;;;;;5015461;28;20211;-81
2023/07/26 01:11:36;;;;;;;3.97;2.10;;;11.50;99.90;;;;;;5016037;28;20192;-82
2023/07/26 01:14:13;;;;;;;2.13;1.90;;;11.40;99.90;;;;;;5015403;28;20205;-81
2023/07/26 01:16:41;;;;;;;2.17;1.60;;;11.50;99.90;;;;;;5014949;28;20220;-81
2023/07/26 01:19:08;;;;;;;3.50;2.03;;;11.50;99.90;;;;;;5014884;28;20675;-81
2023/07/26 01:21:36;;;;;;;2.00;1.73;;;11.40;99.90;;;;;;5015320;28;20295;-80
2023/07/26 01:24:03;;;;;;;2.97;1.73;;;11.40;99.90;;;;;;5004407;28;20201;-82
2023/07/26 01:26:30;;;;;;;3.63;1.90;;;11.40;99.90;;;;;;5015292;28;20274;-80
2023/07/26 01:28:56;;;;;;;5.20;2.67;;;11.40;99.90;;;;;;5016782;28;20564;-81
2023/07/26 01:31:25;;;;;;;2.73;1.70;;;11.50;99.90;;;;;;5015839;28;20204;-80
2023/07/26 01:33:53;;;;;;;2.53;1.70;;;11.40;99.90;;;;;;5015339;28;20204;-80
2023/07/26 01:36:23;;;;;;;2.40;1.73;;;11.30;99.90;;;;;;5015566;28;20506;-80
2023/07/26 01:38:53;;;;;;;3.93;1.83;;;11.40;99.90;;;;;;5015724;28;20220;-81
2023/07/26 01:41:20;;;;;;;2.13;1.83;;;11.20;99.90;;;;;;5015527;28;20204;-80
2023/07/26 01:43:47;;;;;;;2.27;1.93;;;11.30;99.90;;;;;;5015275;28;20239;-80
2023/07/26 01:46:14;;;;;;;3.70;2.00;;;11.20;99.90;;;;;;5015258;28;20238;-81
2023/07/26 01:48:41;;;;;;;3.27;1.67;;;11.10;99.90;;;;;;5015213;28;20228;-82
2023/07/26 01:51:08;;;;;;;2.37;1.87;;;11.10;99.90;;;;;;5014934;28;20215;-82
2023/07/26 01:53:36;;;;;;;2.83;1.77;;;11.10;99.90;;;;;;5014726;28;20263;-82
2023/07/26 01:56:04;;;;;;;2.30;2.00;;;11.00;99.90;;;;;;5014237;28;20243;-80
2023/07/26 01:58:31;;;;;;;3.93;1.70;;;11.20;99.90;;;;;;5014733;28;20232;-80
2023/07/26 02:00:58;;;;;;;4.93;2.03;;;11.20;99.90;;;;;;5015021;28;20258;-81
2023/07/26 02:03:25;;;;;;;4.73;2.43;;;11.20;99.90;;;;;;5014404;28;20673;-81
2023/07/26 02:05:51;;;;;;;3.97;1.70;;;11.10;99.90;;;;;;5013049;28;20246;-81
2023/07/26 02:08:18;;;;;;;2.93;1.83;;;11.00;99.90;;;;;;5014678;28;20290;-81
2023/07/26 02:10:45;;;;;;;5.20;1.70;;;11.00;99.90;;;;;;5015041;28;20213;-80
2023/07/26 02:13:13;;;;;;;4.73;1.77;;;11.00;99.90;;;;;;5014888;28;20211;-81
2023/07/26 02:15:41;;;;;;;5.67;2.60;;;11.10;99.90;;;;;;5014360;28;20242;-82
2023/07/26 02:18:08;;;;;;;6.83;1.83;;;11.10;99.90;;;;;;5014780;28;20603;-80
2023/07/26 02:20:34;;;;;;;2.83;1.70;;;11.00;99.90;;;;;;5014168;28;20375;-80
2023/07/26 02:23:02;;;;;;;4.33;2.07;;;11.00;99.90;;;;;;5014845;28;20212;-80
2023/07/26 02:25:29;;;;;;;2.77;1.70;;;11.00;99.90;;;;;;5014362;28;20210;-80
2023/07/26 02:27:56;;;;;;;5.20;1.97;;;10.90;99.90;;;;;;5014441;28;20223;-80
2023/07/26 02:30:24;;;;;;;3.13;2.10;;;10.80;99.90;;;;;;5015137;28;20193;-82
2023/07/26 02:32:50;;;;;;;3.07;1.67;;;10.90;99.90;;;;;;5015096;28;20204;-82
2023/07/26 02:35:17;;;;;;;3.87;1.83;;;11.00;99.90;;;;;;5015124;28;20210;-82
2023/07/26 02:37:44;;;;;;;1.90;1.50;;;10.90;99.90;;;;;;5013702;28;20224;-81
2023/07/26 02:40:12;;;;;;;12.67;6.83;;;11.00;99.90;;;;;;5014420;28;20228;-82
2023/07/26 02:42:39;;;;;;;8.13;5.37;;;10.90;99.90;;;;;;5010741;28;20635;-81
2023/07/26 02:45:07;;;;;;;5.40;2.47;;;11.10;99.90;;;;;;5006886;28;20562;-81
2023/07/26 02:47:35;;;;;;;6.10;1.97;;;11.10;99.90;;;;;;5003927;28;20228;-80
2023/07/26 02:50:04;;;;;;;5.50;1.87;;;11.10;99.90;;;;;;5014600;28;20664;-81
2023/07/26 02:52:30;;;;;;;3.80;1.87;;;11.10;99.90;;;;;;5006103;28;20283;-80
2023/07/26 02:54:58;;;;;;;4.13;2.33;;;11.10;99.90;;;;;;5014701;28;20239;-81
2023/07/26 02:57:24;;;;;;;6.30;2.27;;;11.10;99.90;;;;;;5014160;28;20220;-80
2023/07/26 02:59:51;;;;;;;2.30;1.93;;;11.30;99.90;;;;;;5015386;28;20220;-80
2023/07/26 03:02:18;;;;;;;4.03;1.93;;;11.20;99.90;;;;;;5014938;28;20222;-79
2023/07/26 03:04:46;;;;;;;4.07;2.10;;;11.20;99.90;;;;;;5015358;28;20196;-80
2023/07/26 03:07:13;;;;;;;2.70;2.00;;;11.30;99.90;;;;;;5014431;28;20251;-80
2023/07/26 03:09:40;;;;;;;2.50;1.80;;;11.20;99.90;;;;;;5014904;28;20291;-80
2023/07/26 03:12:07;;;;;;;7.33;2.67;;;11.10;99.90;;;;;;5015819;28;20569;-80
2023/07/26 03:14:36;;;;;;;2.30;2.10;;;11.10;99.90;;;;;;5015762;28;20196;-80
2023/07/26 03:17:03;;;;;;;2.80;2.27;;;11.10;99.90;;;;;;5014274;28;20251;-80
2023/07/26 03:19:30;;;;;;;4.70;1.93;;;11.20;99.90;;;;;;5014149;28;20231;-79
2023/07/26 03:21:58;;;;;;;3.13;2.20;;;11.20;99.90;;;;;;5014903;28;20205;-81
2023/07/26 03:24:26;;;;;;;5.17;1.80;;;11.20;99.90;;;;;;5013504;28;20287;-80
2023/07/26 03:26:53;;;;;;;5.47;1.87;;;11.20;99.90;;;;;;5013374;28;20609;-80
2023/07/26 03:29:20;;;;;;;3.90;2.90;;;11.10;99.90;;;;;;5012777;28;20654;-79
2023/07/26 03:31:47;;;;;;;9.50;4.93;;;11.10;99.90;;;;;;5013682;28;20223;-81
2023/07/26 03:34:13;;;;;;;3.83;2.10;;;11.10;99.90;;;;;;5014206;28;20287;-79
2023/07/26 03:36:40;;;;;;;5.37;2.27;;;11.10;99.90;;;;;;5013118;28;20231;-80
2023/07/26 03:39:09;;;;;;;5.07;2.33;;;11.20;99.90;;;;;;5012103;28;20270;-82
2023/07/26 03:41:35;;;;;;;3.10;2.43;;;11.20;99.90;;;;;;5012186;28;20204;-80
2023/07/26 03:44:02;;;;;;;5.40;2.30;;;11.30;99.90;;;;;;5015667;28;20196;-80
2023/07/26 03:46:29;;;;;;;5.03;2.00;;;11.30;99.90;;;;;;5016362;28;20220;-80
2023/07/26 03:48:56;;;;;;;3.77;2.70;;;11.30;99.90;;;;;;5016553;28;20564;-80
2023/07/26 03:51:22;;;;;;;4.50;2.17;;;11.20;99.90;;;;;;5016219;28;20204;-79
2023/07/26 03:53:49;;;;;;;6.70;2.70;;;11.30;99.90;;;;;;5015806;28;20206;-79
2023/07/26 03:56:17;;;;;;;4.67;2.27;;;11.40;99.90;;;;;;5015207;28;20216;-81
2023/07/26 03:58:44;;;;;;;3.20;2.30;;;11.50;99.90;;;;;;5015257;28;20196;-81
2023/07/26 04:01:11;;;;;;;5.10;2.03;;;11.50;99.90;;;;;;5017491;28;20197;-80
2023/07/26 04:03:38;;;;;;;3.27;2.50;;;11.60;99.90;;;;;;5016712;28;20200;-80
2023/07/26 04:06:05;;;;;;;5.97;2.23;;;11.50;99.90;;;;;;5017110;28;20311;-80
2023/07/26 04:08:31;;;;;;;4.97;2.37;;;11.60;99.90;;;;;;5017331;28;20203;-81
2023/07/26 04:11:02;;;;;;;7.83;2.40;;;11.70;99.90;;;;;;5017043;28;20197;-82
2023/07/26 04:13:31;;;;;;;4.40;2.30;;;11.70;99.90;;;;;;5016879;28;20284;-80
2023/07/26 04:15:57;;;;;;;5.20;2.43;;;11.80;99.90;;;;;;5016646;28;20235;-81
2023/07/26 04:18:24;;;;;;;5.33;2.60;;;11.80;99.90;;;;;;5017597;28;20210;-79
2023/07/26 04:20:51;;;;;;;8.87;2.30;;;11.80;99.90;;;;;;5016469;28;20220;-81
2023/07/26 04:23:18;;;;;;;2.73;2.30;;;11.90;99.90;;;;;;5016648;28;20299;-82
2023/07/26 04:25:49;;;;;;;6.83;2.60;;;11.90;99.90;;;;;;5016127;28;20222;-81
2023/07/26 04:28:16;;;;;;;6.87;2.60;;;11.90;99.90;;;;;;5016427;28;20547;-81
2023/07/26 04:30:47;;;;;;;7.33;2.60;;;12.00;99.90;;;;;;5016555;28;20212;-80
2023/07/26 04:33:14;;;;;;;5.10;2.63;;;12.10;99.90;;;;;;5016970;28;20232;-81
2023/07/26 04:35:40;;;;;;;4.00;2.17;;;12.10;99.90;;;;;;5016460;28;20275;-82
2023/07/26 04:38:07;;;;;;;5.10;2.57;;;12.10;99.90;;;;;;5016557;28;20204;-80
2023/07/26 04:40:37;;;;;;;4.50;2.60;;;12.10;99.90;;;;;;5016508;28;20235;-80
2023/07/26 04:43:04;;;;;;;4.90;2.47;;;12.20;99.90;;;;;;5017597;28;20262;-82
2023/07/26 04:45:31;;;;;;;4.53;2.60;;;12.00;99.90;;;;;;5016890;28;20226;-80
2023/07/26 04:47:59;;;;;;;4.03;2.63;;;12.20;99.90;;;;;;5016293;28;20204;-80
2023/07/26 04:50:25;;;;;;;3.67;2.30;;;12.20;99.90;;;;;;5006109;28;20199;-80
2023/07/26 04:52:52;;;;;;;4.73;2.57;;;12.20;99.90;;;;;;5014793;28;20615;-80
2023/07/26 04:55:19;;;;;;;6.20;2.30;;;12.30;99.90;;;;;;5014279;28;20208;-80
2023/07/26 04:57:46;;;;;;;5.37;2.50;;;12.40;99.90;;;;;;5015101;28;20200;-81
2023/07/26 05:00:14;;;;;;;4.17;2.27;;;12.40;99.90;;;;;;5015000;28;20228;-81
2023/07/26 05:02:41;;;;;;;2.50;2.30;;;12.40;99.90;;;;;;5009029;28;20196;-81
2023/07/26 05:05:09;;;;;;;3.93;2.73;;;12.40;99.90;;;;;;5010744;28;20200;-80
2023/07/26 05:07:36;;;;;;;6.30;2.53;;;12.40;99.90;;;;;;5001330;28;20686;-80
2023/07/26 05:10:03;;;;;;;6.20;2.80;;;12.30;99.90;;;;;;5011833;28;20205;-81
2023/07/26 05:12:30;;;;;;;4.53;2.47;;;12.40;99.90;;;;;;5010196;28;20211;-80
2023/07/26 05:14:57;;;;;;;6.07;2.60;;;12.40;99.90;;;;;;5012113;28;20208;-83
2023/07/26 05:17:23;;;;;;;4.47;2.50;;;12.40;99.90;;;;;;5002192;28;20221;-80
2023/07/26 05:19:50;;;;;;;2.40;2.20;;;12.40;99.90;;;;;;5006911;28;20595;-80
2023/07/26 05:22:18;;;;;;;4.70;2.53;;;12.40;99.90;;;;;;5014198;28;20204;-80
2023/07/26 05:24:45;;;;;;;5.67;2.80;;;12.60;99.90;;;;;;5014367;28;20209;-80
2023/07/26 05:27:12;;;;;;;3.77;2.50;;;12.60;99.90;;;;;;5013882;28;20224;-80
2023/07/26 05:29:38;;;;;;;2.57;2.00;;;12.50;99.90;;;;;;5014522;28;20211;-80
2023/07/26 05:32:06;;;;;;;4.73;2.53;;;12.50;99.90;;;;;;5015781;28;20208;-80
2023/07/26 05:34:33;;;;;;;4.30;2.60;;;12.60;99.90;;;;;;5016856;28;20214;-80
2023/07/26 05:37:00;;;;;;;2.57;2.30;;;12.60;99.90;;;;;;5015989;28;20247;-82
2023/07/26 05:39:28;;;;;;;3.57;2.17;;;12.60;99.90;;;;;;5016436;28;20214;-80
2023/07/26 05:41:54;;;;;;;4.50;2.57;;;12.70;99.90;;;;;;5016137;28;20201;-81
2023/07/26 05:44:21;;;;;;;4.47;2.30;;;12.60;99.90;;;;;;5014563;28;20204;-81
2023/07/26 05:46:48;;;;;;;7.50;2.80;;;12.90;99.90;;;;;;5015547;28;20224;-81
2023/07/26 05:49:15;;;;;;;4.10;2.43;;;13.20;99.90;;;;;;5015652;28;20215;-82
2023/07/26 05:51:42;;;;;;;5.10;2.60;;;13.20;99.90;;;;;;5015823;28;20200;-81
2023/07/26 05:54:08;;;;;;;4.13;2.70;;;13.20;99.90;;;;;;5015476;28;20216;-82
2023/07/26 05:56:36;;;;;;;3.20;2.50;;;13.30;99.90;;;;;;5015537;28;20228;-81
2023/07/26 05:59:04;;;;;;;3.97;2.30;;;13.20;99.90;;;;;;5015505;28;20223;-80
2023/07/26 06:01:31;;;;;;;4.83;2.87;;;13.40;99.90;;;;;;5014194;28;20220;-81
2023/07/26 06:03:58;;;;;;;4.13;3.23;;;13.30;99.90;;;;;;5015577;28;20579;-81
2023/07/26 06:06:24;;;;;;;6.33;2.70;;;13.40;99.90;;;;;;5014596;28;20686;-80
2023/07/26 06:08:52;;;;;;;4.20;2.63;;;13.50;99.90;;;;;;5015214;28;20207;-80
2023/07/26 06:11:19;;;;;;;3.83;2.10;;;13.60;99.90;;;;;;5015606;28;20254;-82
2023/07/26 06:13:47;;;;;;;7.43;3.57;;;13.70;99.90;;;;;;5015277;28;20204;-80
2023/07/26 06:16:14;;;;;;;3.57;2.27;;;13.80;99.90;;;;;;5014821;28;20602;-81
2023/07/26 06:18:40;;;;;;;3.67;2.53;;;13.90;99.90;;;;;;5014872;28;20212;-80
2023/07/26 06:21:07;;;;;;;4.40;2.67;;;13.90;99.90;;;;;;5014852;28;20591;-80
2023/07/26 06:23:34;;;;;;;6.90;3.00;;;14.00;99.90;;;;;;5014728;28;20223;-80
2023/07/26 06:26:01;;;;;;;3.83;2.67;;;14.00;99.90;;;;;;5014422;28;20224;-80
2023/07/26 06:28:27;;;;;;;5.27;2.57;;;14.00;99.90;;;;;;5013479;28;20212;-81
2023/07/26 06:30:56;;;;;;;3.20;2.40;;;14.10;99.90;;;;;;5014241;28;20201;-82
2023/07/26 06:33:23;;;;;;;5.13;2.80;;;14.10;99.90;;;;;;5014357;28;20201;-82
2023/07/26 06:35:53;;;;;;;6.13;3.53;;;14.20;99.90;;;;;;5013498;28;20251;-82
2023/07/26 06:38:19;;;;;;;3.23;2.10;;;14.20;99.90;;;;;;5014168;28;20315;-82
2023/07/26 06:40:46;;;;;;;4.57;2.40;;;14.50;99.90;;;;;;5014017;28;20235;-80
2023/07/26 06:43:13;;;;;;;3.90;2.50;;;14.30;99.90;;;;;;5007797;28;20201;-80
2023/07/26 06:45:44;;;;;;;4.50;2.43;;;14.60;99.90;;;;;;5013558;28;20229;-80
2023/07/26 06:48:12;;;;;;;2.85;2.53;;;14.90;99.90;;;;;;5010522;28;20212;-81
2023/07/26 06:50:39;;;;;;;4.30;2.97;;;14.80;99.90;;;;;;5013589;28;20224;-80
2023/07/26 06:53:06;;;;;;;4.95;2.55;;;14.80;99.90;;;;;;5005286;28;20613;-79
2023/07/26 06:55:33;;;;;;;2.75;2.20;;;14.80;99.90;;;;;;5013429;28;20211;-81
2023/07/26 06:58:00;;;;;;;6.55;2.70;;;14.70;99.90;;;;;;5013283;28;20204;-82
2023/07/26 07:00:27;;;;;;;5.65;2.67;;;14.90;99.90;;;;;;5012845;28;20212;-81
2023/07/26 07:02:56;;;;;;;4.03;2.80;;;14.70;99.90;;;;;;5013504;28;20212;-80
2023/07/26 07:05:24;;;;;;;4.27;2.80;;;14.80;99.90;;;;;;5013069;28;20262;-81
2023/07/26 07:07:51;;;;;;;4.37;2.60;;;14.80;99.90;;;;;;5012358;28;20212;-81
2023/07/26 07:10:17;;;;;;;3.55;2.50;;;15.10;99.90;;;;;;5013329;28;20291;-81
2023/07/26 07:12:44;;;;;;;4.38;2.58;;;15.10;99.90;;;;;;5014820;28;20220;-80
2023/07/26 07:15:11;;;;;;;2.70;2.45;;;15.20;99.90;;;;;;5014782;28;20467;-82
2023/07/26 07:17:38;;;;;;;6.35;2.88;;;15.50;99.90;;;;;;5014815;28;20235;-82
2023/07/26 07:20:07;;;;;;;4.03;2.50;;;15.80;99.90;;;;;;5018760;28;20220;-81
2023/07/26 07:22:35;;;;;;;4.50;2.58;;;15.90;99.90;;;;;;5018389;28;20204;-82
2023/07/26 07:25:02;;;;;;;4.50;2.72;;;15.90;99.90;;;;;;5017764;28;20592;-82
2023/07/26 07:27:29;;;;;;;5.28;2.83;;;15.90;99.90;;;;;;5017355;28;20219;-81
2023/07/26 07:29:56;;;;;;;7.78;2.80;;;16.00;99.90;;;;;;5018265;28;20582;-83
2023/07/26 07:32:23;;;;;;;2.55;2.35;;;16.10;99.90;;;;;;5017870;28;20658;-80
2023/07/26 07:34:50;;;;;;;2.60;2.20;;;16.20;99.90;;;;;;5017879;28;20712;-80
2023/07/26 07:37:16;;;;;;;8.80;2.33;;;16.00;99.90;;;;;;5017133;28;20228;-80
2023/07/26 07:39:44;;;;;;;4.25;2.40;;;16.20;99.90;;;;;;5017877;28;20215;-81
2023/07/26 07:42:11;;;;;;;4.40;2.13;;;16.30;99.90;;;;;;5016197;28;20225;-81
2023/07/26 07:44:38;;;;;;;3.53;2.40;;;16.30;99.90;;;;;;5008014;28;20304;-80
2023/07/26 07:47:05;;;;;;;4.35;2.47;;;16.30;99.90;;;;;;5009710;28;20267;-80
2023/07/26 07:49:32;;;;;;;3.75;2.30;;;16.00;99.90;;;;;;5010599;28;20204;-80
2023/07/26 07:51:59;;;;;;;2.38;1.70;;;16.40;99.90;;;;;;5014633;28;20605;-81
2023/07/26 07:54:26;;;;;;;2.38;2.08;;;16.60;99.90;;;;;;5007209;28;20230;-80
2023/07/26 07:56:54;;;;;;;8.25;2.30;;;16.30;99.90;;;;;;5010276;28;20423;-80
2023/07/26 07:59:21;;;;;;;2.53;2.17;;;16.20;99.90;;;;;;5004086;28;20200;-81
2023/07/26 08:01:47;;;;;;;3.08;2.05;;;16.20;99.90;;;;;;5001119;28;20220;-82
2023/07/26 08:04:14;;;;;;;3.67;2.15;;;16.30;99.90;;;;;;5008036;28;20197;-81
2023/07/26 08:06:41;;;;;;;3.15;1.98;;;16.40;99.90;;;;;;5013415;28;20591;-81
2023/07/26 08:09:08;;;;;;;4.30;2.58;;;16.40;99.90;;;;;;5016576;28;20276;-82
2023/07/26 08:11:34;;;;;;;2.55;2.20;;;16.50;99.90;;;;;;5016753;28;20208;-81
2023/07/26 08:14:03;;;;;;;4.75;2.28;;;16.40;99.90;;;;;;5016764;28;20204;-80
2023/07/26 08:16:30;;;;;;;2.75;2.25;;;16.30;99.90;;;;;;5016048;28;20212;-82
2023/07/26 08:18:57;;;;;;;3.78;2.80;;;16.50;99.90;;;;;;5017371;28;20212;-80
2023/07/26 08:21:24;;;;;;;2.55;2.35;;;16.60;99.90;;;;;;5017012;28;20713;-81
2023/07/26 08:23:51;;;;;;;2.88;2.15;;;16.80;99.90;;;;;;5017194;28;20208;-80
2023/07/26 08:26:18;;;;;;;2.75;2.35;;;16.90;99.90;;;;;;5016481;28;20228;-80
2023/07/26 08:28:45;;;;;;;4.80;2.47;;;16.90;99.90;;;;;;5015602;28;20299;-80
2023/07/26 08:31:13;;;;;;;2.42;2.22;;;17.10;99.90;;;;;;5016084;28;20200;-80
2023/07/26 08:33:39;;;;;;;4.68;2.00;;;17.20;99.90;;;;;;5016379;28;20219;-80
2023/07/26 08:36:06;;;;;;;4.43;2.30;;;17.30;99.90;;;;;;5015750;28;20601;-82
2023/07/26 08:38:34;;;;;;;3.88;2.20;;;17.20;99.90;;;;;;5016001;28;20667;-80
2023/07/26 08:41:02;;;;;;;2.55;1.90;;;17.10;99.90;;;;;;5015497;28;20227;-82
2023/07/26 08:43:32;;;;;;;3.50;2.20;;;17.20;99.90;;;;;;5016855;28;20299;-81
2023/07/26 08:46:00;;;;;;;4.18;2.05;;;17.20;99.90;;;;;;5015116;28;20232;-80
2023/07/26 08:48:28;;;;;;;3.47;2.10;;;17.50;99.90;;;;;;5014332;28;20516;-81
2023/07/26 08:50:56;;;;;;;1.90;1.70;;;17.50;99.90;;;;;;5014717;28;20689;-79
2023/07/26 08:53:23;;;;;;;2.25;2.03;;;17.30;99.90;;;;;;5014688;28;20215;-80
2023/07/26 08:55:50;;;;;;;4.72;1.30;;;17.30;99.90;;;;;;5014987;28;20228;-81
2023/07/26 08:58:17;;;;;;;3.92;1.90;;;17.20;99.90;;;;;;5012953;28;20252;-83
2023/07/26 09:00:44;;;;;;;2.80;2.05;;;17.00;99.90;;;;;;5006279;28;20228;-81
2023/07/26 09:03:12;;;;;;;2.05;1.80;;;16.90;99.90;;;;;;5002052;28;20275;-81
2023/07/26 09:05:40;;;;;;;2.35;1.83;;;16.30;99.90;;;;;;5009285;28;20300;-82
2023/07/26 09:08:07;;;;;;;3.95;2.20;;;16.00;99.90;;;;;;5009971;28;20211;-81
2023/07/26 09:10:34;;;;;;;3.65;1.67;;;15.80;99.90;;;;;;5013770;28;20201;-81
2023/07/26 09:13:09;;;;;;;6.15;2.10;;;15.70;99.90;;;;;;5010716;28;20204;-81
2023/07/26 09:15:37;;;;;;;2.53;2.33;;;15.70;99.90;;;;;;5014451;28;20675;-81
2023/07/26 09:18:04;;;;;;;2.25;2.05;;;16.10;99.90;;;;;;5015136;28;20258;-82
2023/07/26 09:20:32;;;;;;;2.78;1.80;;;16.60;99.90;;;;;;5015061;28;20235;-81
2023/07/26 09:23:04;;;;;;;3.53;2.35;;;16.50;99.90;;;;;;5016091;28;20685;-81
2023/07/26 09:25:33;;;;;;;3.28;2.17;;;16.70;99.90;;;;;;5016206;28;20208;-80
2023/07/26 09:28:00;;;;;;;3.10;2.08;;;16.80;99.90;;;;;;5016219;28;20641;-80
2023/07/26 09:30:28;;;;;;;4.70;2.10;;;17.30;99.90;;;;;;5015948;28;20295;-81
2023/07/26 09:32:56;;;;;;;4.45;2.70;;;17.60;99.90;;;;;;5015170;28;20207;-81
2023/07/26 09:35:22;;;;;;;4.90;2.53;;;17.50;99.90;;;;;;5015768;28;20211;-80
2023/07/26 09:37:50;;;;;;;4.35;2.25;;;17.60;99.90;;;;;;5014685;28;20215;-80
2023/07/26 09:40:30;;;;;;;4.90;2.45;;;17.80;99.90;;;;;;5014740;28;20207;-81
2023/07/26 09:42:57;;;;;;;2.25;2.05;;;18.40;99.90;;;;;;5015057;28;20207;-81
2023/07/26 09:45:25;;;;;;;2.33;1.88;;;18.70;99.90;;;;;;5015202;28;20227;-82
2023/07/26 09:47:52;;;;;;;3.67;1.85;;;18.70;99.90;;;;;;5014536;28;20583;-81
2023/07/26 09:50:26;;;;;;;3.30;2.30;;;18.90;99.90;;;;;;5014893;28;20209;-80
2023/07/26 09:52:54;;;;;;;3.10;2.13;;;19.20;99.90;;;;;;5016345;28;20674;-82
2023/07/26 09:55:24;;;;;;;3.05;2.38;;;19.60;99.90;;;;;;5014923;28;20212;-81
2023/07/26 09:57:53;;;;;;;5.57;1.75;;;19.80;99.90;;;;;;5014911;28;20204;-82
2023/07/26 10:00:20;;;;;;;2.45;2.25;;;20.40;99.90;;;;;;5015167;28;20263;-83
2023/07/26 10:02:51;;;;;;;3.70;1.75;;;20.20;99.90;;;;;;5014310;28;20591;-81
2023/07/26 10:05:19;;;;;;;3.03;1.92;;;20.30;99.90;;;;;;5014290;28;20230;-81
2023/07/26 10:07:47;;;;;;;4.30;1.90;;;20.30;99.90;;;;;;5015764;28;20212;-81
2023/07/26 10:10:16;;;;;;;2.15;1.73;;;20.50;99.90;;;;;;5016007;28;20271;-83
2023/07/26 10:12:46;;;;;;;1.73;1.50;;;20.70;99.90;;;;;;5015242;28;20295;-81
2023/07/26 10:15:13;;;;;;;1.83;1.60;;;21.00;99.90;;;;;;5015230;28;20216;-81
2023/07/26 10:17:41;;;;;;;2.22;1.58;;;21.10;99.90;;;;;;5015019;28;20250;-81
2023/07/26 10:20:10;;;;;;;2.95;1.92;;;21.20;99.90;;;;;;5014999;28;20215;-81
2023/07/26 10:22:39;;;;;;;2.45;2.17;;;21.10;99.90;;;;;;5015081;28;20605;-82
2023/07/26 10:25:06;;;;;;;2.08;1.75;;;20.20;99.90;;;;;;5015069;28;20376;-82
2023/07/26 10:27:34;;;;;;;3.45;2.33;;;19.30;99.90;;;;;;5014729;28;20224;-80
2023/07/26 10:30:03;;;;;;;2.70;2.13;;;18.50;99.90;;;;;;5015229;28;20211;-82
2023/07/26 10:32:30;;;;;;;2.08;1.88;;;18.20;99.90;;;;;;5016473;28;20227;-81
2023/07/26 10:34:57;;;;;;;2.90;2.13;;;18.30;99.90;;;;;;5015170;28;20213;-81
2023/07/26 10:37:32;;;;;;;2.97;1.95;;;18.80;99.90;;;;;;5014187;28;20212;-81
2023/07/26 10:39:59;;;;;;;2.30;1.70;;;19.90;99.90;;;;;;5014776;28;20590;-82
2023/07/26 10:42:27;;;;;;;2.72;1.95;;;20.10;99.90;;;;;;5014238;28;20228;-81
2023/07/26 10:44:55;;;;;;;3.97;2.45;;;19.90;99.90;;;;;;5011816;28;20677;-81
2023/07/26 10:47:23;;;;;;;1.90;1.80;;;20.40;99.90;;;;;;5005431;28;20225;-82
2023/07/26 10:49:51;;;;;;;2.33;1.70;;;20.80;99.90;;;;;;4996235;28;20231;-81
2023/07/26 10:52:18;;;;;;;2.42;1.80;;;19.90;99.90;;;;;;5006673;28;20192;-81
2023/07/26 10:54:48;;;;;;;2.20;1.90;;;20.30;99.90;;;;;;5009003;28;20527;-81
2023/07/26 10:57:20;;;;;;;1.70;1.60;;;21.10;99.90;;;;;;5017358;28;20230;-81
2023/07/26 10:59:55;;;;;;;1.52;1.42;;;20.80;99.90;;;;;;5018261;28;20192;-81
2023/07/26 11:02:36;;;;;;;3.55;1.48;;;20.50;99.90;;;;;;5018094;28;20235;-82
2023/07/26 11:05:05;;;;;;;2.30;1.30;;;21.20;99.90;;;;;;5017969;28;20299;-81
2023/07/26 11:07:59;;;;;;;1.50;1.40;;;21.50;88.30;;;;;;5018095;28;20573;-81
2023/07/26 11:10:29;;;;;;;1.67;1.58;;;21.40;99.90;;;;;;5018474;28;20228;-81
2023/07/26 11:13:07;;;;;;;2.50;1.60;;;21.30;84.80;;;;;;5017846;28;20239;-80
2023/07/26 11:15:36;;;;;;;1.88;1.50;;;21.00;56.00;;;;;;5018679;28;20230;-81
2023/07/26 11:18:05;;;;;;;2.17;1.65;;;20.60;78.30;;;;;;5018367;28;20192;-81
2023/07/26 11:20:31;;;;;;;1.65;1.33;;;20.90;64.00;;;;;;5018304;28;20218;-82
2023/07/26 11:22:58;;;;;;;2.10;1.40;;;21.10;58.70;;;;;;5018391;28;20224;-81
2023/07/26 11:25:25;;;;;;;1.85;1.52;;;20.90;31.40;;;;;;5018311;28;20210;-81
2023/07/26 11:27:52;;;;;;;3.75;1.70;;;20.80;42.30;;;;;;5018490;28;20212;-81
2023/07/26 11:30:21;;;;;;;2.30;2.10;;;20.90;61.40;;;;;;5017682;28;20202;-82
2023/07/26 11:32:49;;;;;;;1.95;1.40;;;21.30;38.70;;;;;;5018578;28;20658;-82
2023/07/26 11:35:19;;;;;;;2.58;1.60;;;20.80;17.40;;;;;;5018815;28;20666;-82
2023/07/26 11:37:53;;;;;;;1.98;1.60;;;20.70;30.60;;;;;;5017428;28;20213;-82
2023/07/26 11:40:20;;;;;;;1.70;1.40;;;20.50;35.90;;;;;;5011168;28;20196;-82
2023/07/26 11:42:47;;;;;;;2.45;1.70;;;20.30;55.00;;;;;;5018924;28;20636;-82
2023/07/26 11:45:15;;;;;;;1.85;1.60;;;20.10;94.80;;;;;;5017821;28;20571;-81
2023/07/26 11:47:42;;;;;;;3.42;1.77;;;20.10;91.60;;;;;;5018084;28;20228;-82
2023/07/26 11:50:09;;;;;;;1.85;1.70;;;19.50;99.90;;;;;;5018151;28;20204;-83
2023/07/26 11:52:38;;;;;;;2.22;1.75;;;19.40;99.90;;;;;;5017961;28;20205;-82
2023/07/26 11:55:06;;;;;;;3.00;1.73;;;19.40;99.90;;;;;;5017483;28;20319;-82
2023/07/26 11:57:33;;;;;;;2.15;1.95;;;19.40;99.90;;;;;;5016390;28;20572;-82
2023/07/26 12:00:04;;;;;;;2.55;2.00;;;19.60;99.90;;;;;;5017465;28;20197;-81
2023/07/26 12:02:31;;;;;;;3.10;2.00;;;19.20;99.90;;;;;;5017187;28;20228;-82
2023/07/26 12:05:18;;;;;;;3.88;2.03;;;19.20;99.90;;;;;;5016832;28;20208;-83
2023/07/26 12:07:48;;;;;;;2.97;1.80;;;19.10;99.90;;;;;;5016880;28;20314;-82
2023/07/26 12:10:15;;;;;;;1.75;1.58;;;19.10;99.90;;;;;;5017508;28;20197;-82
2023/07/26 12:12:43;;;;;;;3.13;1.80;;;19.20;99.90;;;;;;5017844;28;20204;-82
2023/07/26 12:15:10;;;;;;;2.88;1.70;;;19.30;99.90;;;;;;5018482;28;20219;-82
2023/07/26 12:17:37;;;;;;;3.03;1.70;;;18.90;99.90;;;;;;5018405;28;20228;-83
2023/07/26 12:20:06;;;;;;;2.35;1.65;;;19.10;99.90;;;;;;5017937;28;20285;-82
2023/07/26 12:22:33;;;;;;;2.22;1.70;;;19.20;99.90;;;;;;5017834;28;20228;-82
2023/07/26 12:25:03;;;;;;;2.30;1.65;;;19.30;99.90;;;;;;5017075;28;20210;-82
2023/07/26 12:27:34;;;;;;;1.98;1.77;;;19.20;99.90;;;;;;5018599;28;20682;-83
2023/07/26 12:30:01;;;;;;;1.77;1.60;;;19.30;99.90;;;;;;5018786;28;20212;-82
2023/07/26 12:32:27;;;;;;;1.65;1.33;;;19.70;99.90;;;;;;5019911;28;20212;-82
2023/07/26 12:34:55;;;;;;;2.20;1.70;;;19.50;99.90;;;;;;5018520;28;20192;-82
2023/07/26 12:37:31;;;;;;;1.95;1.60;;;20.40;99.90;;;;;;5018246;28;20287;-85
2023/07/26 12:39:57;;;;;;;2.05;1.80;;;20.50;99.90;;;;;;5017947;28;20219;-83
2023/07/26 12:42:26;;;;;;;2.65;1.80;;;20.30;99.90;;;;;;5017791;28;20238;-83
2023/07/26 12:44:53;;;;;;;2.83;2.00;;;20.10;99.90;;;;;;5018060;28;20204;-82
2023/07/26 12:47:20;;;;;;;2.30;1.73;;;20.60;99.90;;;;;;5017130;28;20224;-82
2023/07/26 12:49:46;;;;;;;2.25;2.00;;;21.40;99.90;;;;;;5017634;28;20212;-82